Time;durP1;ratioP1;P1;durP2;ratioP2;P2;SDS_P1;SDS_P2;PMS_P1;PMS_P2;Temp;Humidity;BMP_temperature;BMP_pressure;BME280_temperature;BME280_humidity;BME280_pressure;Samples;Min_cycle;Max_cycle;Signal;HPM_P1;HPM_P2
2021/04/25 00:01:44;;;;;;;12.55;7.28;;;;;;;;;;5034361;28;20486;-86
2021/04/25 00:04:14;;;;;;;8.85;7.13;;;;;;;;;;5025605;28;20034;-86
2021/04/25 00:06:40;;;;;;;9.43;6.95;;;;;;;;;;5016629;28;20032;-86
2021/04/25 00:09:06;;;;;;;9.27;7.25;;;;;;;;;;5019904;28;20037;-86
2021/04/25 00:11:32;;;;;;;10.15;8.00;;;;;;;;;;5024825;28;20099;-85
2021/04/25 00:13:58;;;;;;;10.23;8.00;;;;;;;;;;5026211;28;20482;-88
2021/04/25 00:16:26;;;;;;;11.00;7.88;;;;;;;;;;5030863;28;20017;-85
2021/04/25 00:18:52;;;;;;;10.77;7.90;;;;;;;;;;5018232;28;20065;-85
2021/04/25 00:21:21;;;;;;;9.40;7.82;;;;;;;;;;5024514;28;20026;-85
2021/04/25 00:23:47;;;;;;;10.80;7.25;;;;;;;;;;5021189;28;20026;-86
2021/04/25 00:26:13;;;;;;;9.85;7.38;;;;;;;;;;5020812;28;20084;-86
2021/04/25 00:28:39;;;;;;;8.60;6.70;;;;;;;;;;5031879;28;20055;-86
2021/04/25 00:31:05;;;;;;;11.10;7.53;;;;;;;;;;5036822;28;20030;-86
2021/04/25 00:33:32;;;;;;;9.73;7.70;;;;;;;;;;5041204;28;20108;-86
2021/04/25 00:35:58;;;;;;;8.85;7.47;;;;;;;;;;5029868;28;20022;-86
2021/04/25 00:38:24;;;;;;;10.30;7.40;;;;;;;;;;5026957;28;20060;-86
2021/04/25 00:40:50;;;;;;;8.95;7.00;;;;;;;;;;5026807;28;20033;-86
2021/04/25 00:43:16;;;;;;;8.88;6.32;;;;;;;;;;5031392;28;20656;-86
2021/04/25 00:45:42;;;;;;;8.60;6.85;;;;;;;;;;5017453;28;20052;-86
2021/04/25 00:48:08;;;;;;;10.27;7.47;;;;;;;;;;5021164;28;20037;-86
2021/04/25 00:50:34;;;;;;;8.98;7.13;;;;;;;;;;5022271;28;20113;-86
2021/04/25 00:53:00;;;;;;;8.80;7.45;;;;;;;;;;5022468;28;20041;-86
2021/04/25 00:55:27;;;;;;;10.63;7.65;;;;;;;;;;5019196;28;20053;-86
2021/04/25 00:57:54;;;;;;;13.82;7.20;;;;;;;;;;5033323;28;20029;-86
2021/04/25 01:00:20;;;;;;;10.27;7.55;;;;;;;;;;5059240;28;20032;-86
2021/04/25 01:02:46;;;;;;;8.15;6.80;;;;;;;;;;5050211;28;20029;-87
2021/04/25 01:05:13;;;;;;;8.30;6.97;;;;;;;;;;5038395;28;20030;-86
2021/04/25 01:07:39;;;;;;;9.18;7.03;;;;;;;;;;5035980;28;20021;-87
2021/04/25 01:10:07;;;;;;;7.95;6.63;;;;;;;;;;5033191;28;20037;-88
2021/04/25 01:12:33;;;;;;;10.05;7.38;;;;;;;;;;5032363;28;20635;-88
2021/04/25 01:14:59;;;;;;;8.07;6.72;;;;;;;;;;5023288;28;20030;-87
2021/04/25 01:17:26;;;;;;;9.45;7.25;;;;;;;;;;5021588;28;20041;-87
2021/04/25 01:19:52;;;;;;;9.20;7.15;;;;;;;;;;5021470;28;20049;-87
2021/04/25 01:22:21;;;;;;;8.73;6.75;;;;;;;;;;5034473;28;20071;-87
2021/04/25 01:24:47;;;;;;;9.90;6.80;;;;;;;;;;5042602;28;20026;-87
2021/04/25 01:27:13;;;;;;;9.30;6.28;;;;;;;;;;5030938;28;20034;-86
2021/04/25 01:29:39;;;;;;;7.72;6.20;;;;;;;;;;5034694;28;20037;-86
2021/04/25 01:32:05;;;;;;;9.52;7.28;;;;;;;;;;5033898;28;20037;-86
2021/04/25 01:34:31;;;;;;;9.02;7.72;;;;;;;;;;5033621;28;20030;-86
2021/04/25 01:36:57;;;;;;;9.48;7.47;;;;;;;;;;5036549;28;20057;-86
2021/04/25 01:39:24;;;;;;;10.48;7.50;;;;;;;;;;5040680;28;20025;-86
2021/04/25 01:41:50;;;;;;;11.90;7.63;;;;;;;;;;5041800;28;20021;-86
2021/04/25 01:44:16;;;;;;;8.63;6.85;;;;;;;;;;5026859;28;20022;-86
2021/04/25 01:46:43;;;;;;;10.30;7.45;;;;;;;;;;5027663;28;20117;-86
2021/04/25 01:49:09;;;;;;;8.75;7.25;;;;;;;;;;5025415;28;20033;-86
2021/04/25 01:51:35;;;;;;;9.82;7.70;;;;;;;;;;5016133;28;20026;-86
2021/04/25 01:54:01;;;;;;;7.50;5.97;;;;;;;;;;5019003;28;20125;-86
2021/04/25 01:56:27;;;;;;;8.77;6.88;;;;;;;;;;5020247;28;20028;-86
2021/04/25 01:58:53;;;;;;;9.20;7.32;;;;;;;;;;5027179;28;20420;-86
2021/04/25 02:01:19;;;;;;;9.13;8.18;;;;;;;;;;5038870;28;20085;-86
2021/04/25 02:03:45;;;;;;;9.10;7.88;;;;;;;;;;5033011;28;20025;-86
2021/04/25 02:06:11;;;;;;;10.95;7.45;;;;;;;;;;5017907;28;20064;-86
2021/04/25 02:08:37;;;;;;;8.30;6.93;;;;;;;;;;5024163;28;20128;-86
2021/04/25 02:11:03;;;;;;;9.27;7.00;;;;;;;;;;5021256;28;20061;-85
2021/04/25 02:13:29;;;;;;;9.88;7.72;;;;;;;;;;5035472;28;20614;-86
2021/04/25 02:15:55;;;;;;;10.73;8.30;;;;;;;;;;5025001;28;20036;-86
2021/04/25 02:18:21;;;;;;;10.95;8.10;;;;;;;;;;5036983;28;20068;-86
2021/04/25 02:20:47;;;;;;;9.10;7.90;;;;;;;;;;5023773;28;20390;-86
2021/04/25 02:23:13;;;;;;;10.05;8.00;;;;;;;;;;5037187;28;20057;-86
2021/04/25 02:25:39;;;;;;;9.38;8.27;;;;;;;;;;5040273;28;20065;-86
2021/04/25 02:28:05;;;;;;;12.15;8.02;;;;;;;;;;5035740;28;20022;-86
2021/04/25 02:30:32;;;;;;;11.30;7.55;;;;;;;;;;5025012;28;20460;-86
2021/04/25 02:32:59;;;;;;;8.77;7.10;;;;;;;;;;5038289;28;20045;-86
2021/04/25 02:35:26;;;;;;;9.98;7.43;;;;;;;;;;5024680;28;20387;-86
2021/04/25 02:37:52;;;;;;;9.15;7.40;;;;;;;;;;5022869;28;20065;-86
2021/04/25 02:40:20;;;;;;;11.73;7.70;;;;;;;;;;5027982;28;20029;-86
2021/04/25 02:42:46;;;;;;;10.80;8.15;;;;;;;;;;5037629;28;20036;-85
2021/04/25 02:45:16;;;;;;;11.38;7.55;;;;;;;;;;5023900;28;20030;-86
2021/04/25 02:48:01;;;;;;;8.48;7.00;;;;;;;;;;5037411;28;20545;-86
2021/04/25 02:50:29;;;;;;;9.57;8.23;;;;;;;;;;5022471;28;20098;-85
2021/04/25 02:52:56;;;;;;;9.55;7.97;;;;;;;;;;5027126;28;20048;-86
2021/04/25 02:55:22;;;;;;;8.80;7.00;;;;;;;;;;5028368;28;20433;-87
2021/04/25 02:57:48;;;;;;;9.18;7.88;;;;;;;;;;5038019;28;20032;-86
2021/04/25 03:00:20;;;;;;;12.05;8.25;;;;;;;;;;5052562;28;20025;-86
2021/04/25 03:02:46;;;;;;;10.68;7.60;;;;;;;;;;5017041;28;20400;-86
2021/04/25 03:05:12;;;;;;;8.98;7.63;;;;;;;;;;5018992;28;20033;-86
2021/04/25 03:07:38;;;;;;;8.52;7.13;;;;;;;;;;5018432;28;20032;-86
2021/04/25 03:10:05;;;;;;;10.57;8.20;;;;;;;;;;5021371;28;20022;-86
2021/04/25 03:12:31;;;;;;;9.05;7.68;;;;;;;;;;5028465;28;20492;-86
2021/04/25 03:14:57;;;;;;;9.40;7.53;;;;;;;;;;5018186;28;20022;-86
2021/04/25 03:17:23;;;;;;;9.60;7.50;;;;;;;;;;5016258;28;20018;-86
2021/04/25 03:19:49;;;;;;;8.93;7.35;;;;;;;;;;5018001;28;20088;-86
2021/04/25 03:22:15;;;;;;;9.73;7.80;;;;;;;;;;5028772;28;20049;-86
2021/04/25 03:24:41;;;;;;;9.60;7.65;;;;;;;;;;5022764;28;20113;-86
2021/04/25 03:27:07;;;;;;;9.02;7.05;;;;;;;;;;5037931;28;20119;-86
2021/04/25 03:29:33;;;;;;;10.35;8.15;;;;;;;;;;5025854;28;20112;-86
2021/04/25 03:31:59;;;;;;;9.60;8.23;;;;;;;;;;5034061;28;20045;-86
2021/04/25 03:34:25;;;;;;;9.80;8.32;;;;;;;;;;5035653;28;20030;-86
2021/04/25 03:36:51;;;;;;;10.27;7.90;;;;;;;;;;5035561;28;20032;-86
2021/04/25 03:39:17;;;;;;;10.07;8.25;;;;;;;;;;5015538;28;20032;-86
2021/04/25 03:41:43;;;;;;;9.60;7.38;;;;;;;;;;5016614;28;20026;-86
2021/04/25 03:44:10;;;;;;;12.05;8.35;;;;;;;;;;5017771;28;20026;-86
2021/04/25 03:46:36;;;;;;;9.75;8.35;;;;;;;;;;5016828;28;20075;-86
2021/04/25 03:49:03;;;;;;;14.77;8.73;;;;;;;;;;5023698;28;20101;-86
2021/04/25 03:51:30;;;;;;;11.50;8.98;;;;;;;;;;5029648;28;20058;-86
2021/04/25 03:53:56;;;;;;;10.00;8.57;;;;;;;;;;5015539;28;20045;-85
2021/04/25 03:56:22;;;;;;;11.02;8.43;;;;;;;;;;5017736;28;20033;-85
2021/04/25 03:58:48;;;;;;;10.52;8.45;;;;;;;;;;5023447;28;20108;-86
2021/04/25 04:01:14;;;;;;;10.60;8.68;;;;;;;;;;5038111;28;20104;-86
2021/04/25 04:03:40;;;;;;;10.00;8.45;;;;;;;;;;5013245;28;20029;-86
2021/04/25 04:06:06;;;;;;;9.95;8.15;;;;;;;;;;5016859;28;20510;-86
2021/04/25 04:08:32;;;;;;;9.68;8.68;;;;;;;;;;5027132;28;20030;-86
2021/04/25 04:10:58;;;;;;;10.05;8.95;;;;;;;;;;5024104;28;20093;-86
2021/04/25 04:13:24;;;;;;;9.85;8.73;;;;;;;;;;5027447;28;20041;-86
2021/04/25 04:15:50;;;;;;;10.75;9.10;;;;;;;;;;5015386;28;20141;-86
2021/04/25 04:18:16;;;;;;;11.57;8.93;;;;;;;;;;5014898;28;20506;-86
2021/04/25 04:20:41;;;;;;;11.45;9.32;;;;;;;;;;5017364;28;20026;-86
2021/04/25 04:23:07;;;;;;;12.55;9.70;;;;;;;;;;5017577;28;20135;-85
2021/04/25 04:25:33;;;;;;;14.25;9.25;;;;;;;;;;5017289;28;20030;-86
2021/04/25 04:27:59;;;;;;;12.30;8.60;;;;;;;;;;5013312;28;20026;-86
2021/04/25 04:30:26;;;;;;;10.30;9.20;;;;;;;;;;5014569;28;20052;-86
2021/04/25 04:32:52;;;;;;;11.18;9.15;;;;;;;;;;5027662;28;20052;-85
2021/04/25 04:35:18;;;;;;;10.82;9.10;;;;;;;;;;5023291;28;20060;-85
2021/04/25 04:37:44;;;;;;;11.48;8.35;;;;;;;;;;5023372;28;20362;-85
2021/04/25 04:40:11;;;;;;;10.80;8.70;;;;;;;;;;5016714;28;20113;-87
2021/04/25 04:42:38;;;;;;;10.25;8.65;;;;;;;;;;5014488;28;20022;-87
2021/04/25 04:45:04;;;;;;;12.07;9.10;;;;;;;;;;5028281;28;20032;-85
2021/04/25 04:47:30;;;;;;;9.65;8.15;;;;;;;;;;5018068;28;20033;-87
2021/04/25 04:49:56;;;;;;;10.50;8.20;;;;;;;;;;5015759;28;20495;-87
2021/04/25 04:52:22;;;;;;;10.77;8.73;;;;;;;;;;5016536;28;20064;-87
2021/04/25 04:54:49;;;;;;;10.48;8.45;;;;;;;;;;5014693;28;20041;-86
2021/04/25 04:57:15;;;;;;;10.35;9.00;;;;;;;;;;5030973;28;20040;-86
2021/04/25 04:59:44;;;;;;;9.98;8.90;;;;;;;;;;5042154;28;20021;-86
2021/04/25 05:02:10;;;;;;;11.93;8.02;;;;;;;;;;5027760;28;20030;-86
2021/04/25 05:04:36;;;;;;;12.32;9.05;;;;;;;;;;5021985;28;20022;-85
2021/04/25 05:07:02;;;;;;;11.18;9.13;;;;;;;;;;5018353;28;20036;-86
2021/04/25 05:09:28;;;;;;;9.90;8.70;;;;;;;;;;5027979;28;20033;-85
2021/04/25 05:11:56;;;;;;;12.60;7.90;;;;;;;;;;5021195;28;20163;-86
2021/04/25 05:14:22;;;;;;;10.95;8.02;;;;;;;;;;5020411;28;20490;-85
2021/04/25 05:16:48;;;;;;;10.05;8.77;;;;;;;;;;5020604;28;20065;-85
2021/04/25 05:19:14;;;;;;;10.07;8.35;;;;;;;;;;5016880;28;20081;-85
2021/04/25 05:21:40;;;;;;;9.93;8.65;;;;;;;;;;5031641;28;20029;-85
2021/04/25 05:24:07;;;;;;;10.88;8.90;;;;;;;;;;5019153;28;20020;-86
2021/04/25 05:26:33;;;;;;;10.05;8.38;;;;;;;;;;5028043;28;20021;-86
2021/04/25 05:28:59;;;;;;;11.55;8.70;;;;;;;;;;5024674;28;20083;-86
2021/04/25 05:31:25;;;;;;;11.48;8.85;;;;;;;;;;5020416;28;20391;-86
2021/04/25 05:33:52;;;;;;;10.38;8.43;;;;;;;;;;5017515;28;20038;-84
2021/04/25 05:36:18;;;;;;;10.50;8.45;;;;;;;;;;5031033;28;20076;-85
2021/04/25 05:38:44;;;;;;;10.15;8.00;;;;;;;;;;5026900;28;20425;-85
2021/04/25 05:41:09;;;;;;;10.02;8.65;;;;;;;;;;5020176;28;20029;-86
2021/04/25 05:43:35;;;;;;;10.70;8.43;;;;;;;;;;5019450;28;20025;-87
2021/04/25 05:46:01;;;;;;;10.95;8.60;;;;;;;;;;5031340;28;20025;-86
2021/04/25 05:48:27;;;;;;;11.05;8.88;;;;;;;;;;5015238;28;20030;-86
2021/04/25 05:50:53;;;;;;;9.82;8.43;;;;;;;;;;5018859;28;20105;-86
2021/04/25 05:53:19;;;;;;;9.80;8.00;;;;;;;;;;5019761;28;20042;-85
2021/04/25 05:55:46;;;;;;;9.73;8.60;;;;;;;;;;5019782;28;20024;-85
2021/04/25 05:58:12;;;;;;;13.35;8.27;;;;;;;;;;5014161;28;20057;-85
2021/04/25 06:00:39;;;;;;;9.07;7.63;;;;;;;;;;5044523;28;20068;-85
2021/04/25 06:03:08;;;;;;;11.80;7.43;;;;;;;;;;5018886;28;20395;-86
2021/04/25 06:05:34;;;;;;;8.18;6.57;;;;;;;;;;5019634;28;20350;-85
2021/04/25 06:08:02;;;;;;;9.77;5.95;;;;;;;;;;5019368;28;20040;-86
2021/04/25 06:10:28;;;;;;;10.95;5.88;;;;;;;;;;5018211;28;20044;-85
2021/04/25 06:12:54;;;;;;;10.05;5.85;;;;;;;;;;5016134;28;20036;-85
2021/04/25 06:15:21;;;;;;;6.75;5.88;;;;;;;;;;5031653;28;20026;-84
2021/04/25 06:17:47;;;;;;;8.02;5.90;;;;;;;;;;5031461;28;20026;-86
2021/04/25 06:20:14;;;;;;;9.70;6.05;;;;;;;;;;5020213;28;20449;-83
2021/04/25 06:22:40;;;;;;;7.63;6.00;;;;;;;;;;5019247;28;20394;-87
2021/04/25 06:25:07;;;;;;;7.30;5.32;;;;;;;;;;5030717;28;20029;-85
2021/04/25 06:27:33;;;;;;;6.47;4.90;;;;;;;;;;5015297;28;20039;-85
2021/04/25 06:29:59;;;;;;;8.07;5.43;;;;;;;;;;5019883;28;20092;-87
2021/04/25 06:32:25;;;;;;;7.88;5.47;;;;;;;;;;5029428;28;20040;-87
2021/04/25 06:34:51;;;;;;;7.22;5.10;;;;;;;;;;5025270;28;20038;-86
2021/04/25 06:37:17;;;;;;;6.82;5.13;;;;;;;;;;5023869;28;20060;-86
2021/04/25 06:39:43;;;;;;;8.13;5.60;;;;;;;;;;5014380;28;20025;-86
2021/04/25 06:42:09;;;;;;;6.32;5.07;;;;;;;;;;5020604;28;20463;-86
2021/04/25 06:44:35;;;;;;;6.03;5.28;;;;;;;;;;5026973;28;20040;-88
2021/04/25 06:47:01;;;;;;;8.40;5.10;;;;;;;;;;5030662;28;20040;-87
2021/04/25 06:49:28;;;;;;;6.82;5.50;;;;;;;;;;5035012;28;20025;-86
2021/04/25 06:51:54;;;;;;;9.77;5.40;;;;;;;;;;5023736;28;20124;-87
2021/04/25 06:54:20;;;;;;;6.68;5.20;;;;;;;;;;5023466;28;20797;-87
2021/04/25 06:56:46;;;;;;;7.07;5.18;;;;;;;;;;5036093;28;20056;-86
2021/04/25 06:59:12;;;;;;;6.65;4.88;;;;;;;;;;5040344;28;20033;-86
2021/04/25 07:01:38;;;;;;;9.32;5.63;;;;;;;;;;5033154;28;20459;-86
2021/04/25 07:04:04;;;;;;;6.35;5.20;;;;;;;;;;5025026;28;20022;-86
2021/04/25 07:06:30;;;;;;;7.75;5.53;;;;;;;;;;5022539;28;20536;-86
2021/04/25 07:08:57;;;;;;;5.78;4.97;;;;;;;;;;5036294;28;20029;-85
2021/04/25 07:11:23;;;;;;;5.90;4.95;;;;;;;;;;5033551;28;20360;-86
2021/04/25 07:13:49;;;;;;;6.00;4.90;;;;;;;;;;5036761;28;20072;-86
2021/04/25 07:16:15;;;;;;;6.63;5.03;;;;;;;;;;5035035;28;20021;-87
2021/04/25 07:18:41;;;;;;;6.80;4.85;;;;;;;;;;5015348;28;20117;-86
2021/04/25 07:21:07;;;;;;;6.05;4.70;;;;;;;;;;5019542;28;20037;-85
2021/04/25 07:23:33;;;;;;;6.22;4.53;;;;;;;;;;5020996;28;20022;-86
2021/04/25 07:25:59;;;;;;;6.60;5.00;;;;;;;;;;5021272;28;20152;-85
2021/04/25 07:28:25;;;;;;;8.25;5.18;;;;;;;;;;5020761;28;20032;-86
2021/04/25 07:30:52;;;;;;;6.22;4.88;;;;;;;;;;5019954;28;20545;-86
2021/04/25 07:33:18;;;;;;;9.23;4.40;;;;;;;;;;5017078;28;20108;-85
2021/04/25 07:35:44;;;;;;;7.50;5.15;;;;;;;;;;5027731;28;20076;-86
2021/04/25 07:38:11;;;;;;;6.88;4.90;;;;;;;;;;5021660;28;20040;-86
2021/04/25 07:40:38;;;;;;;7.07;5.32;;;;;;;;;;5019114;28;20078;-86
2021/04/25 07:43:04;;;;;;;6.95;4.72;;;;;;;;;;5029872;28;20044;-86
2021/04/25 07:45:30;;;;;;;7.07;5.45;;;;;;;;;;5021403;28;20527;-86
2021/04/25 07:47:56;;;;;;;6.22;4.90;;;;;;;;;;5025672;28;20060;-86
2021/04/25 07:50:22;;;;;;;6.10;4.70;;;;;;;;;;5023491;28;20063;-86
2021/04/25 07:52:48;;;;;;;8.05;4.60;;;;;;;;;;5020174;28;20037;-86
2021/04/25 07:55:14;;;;;;;6.28;4.75;;;;;;;;;;5014420;28;20467;-87
2021/04/25 07:57:40;;;;;;;5.22;4.60;;;;;;;;;;5029912;28;20052;-86
2021/04/25 08:00:08;;;;;;;7.53;5.05;;;;;;;;;;5042764;28;20487;-86
2021/04/25 08:02:34;;;;;;;5.93;4.40;;;;;;;;;;5028326;28;20467;-86
2021/04/25 08:05:00;;;;;;;5.25;4.75;;;;;;;;;;5027019;28;20105;-86
2021/04/25 08:07:26;;;;;;;6.78;5.05;;;;;;;;;;5023504;28;20460;-86
2021/04/25 08:09:52;;;;;;;6.75;4.90;;;;;;;;;;5022841;28;20056;-86
2021/04/25 08:12:18;;;;;;;6.20;4.40;;;;;;;;;;5029427;28;20079;-85
2021/04/25 08:14:44;;;;;;;6.60;4.75;;;;;;;;;;5017319;28;20038;-86
2021/04/25 08:17:10;;;;;;;6.00;4.63;;;;;;;;;;5022375;28;20438;-85
2021/04/25 08:19:36;;;;;;;7.30;4.95;;;;;;;;;;5024376;28;20088;-86
2021/04/25 08:22:02;;;;;;;7.22;4.78;;;;;;;;;;5015533;28;20453;-86
2021/04/25 08:24:28;;;;;;;5.88;4.55;;;;;;;;;;5029933;28;20100;-86
2021/04/25 08:26:54;;;;;;;7.07;4.70;;;;;;;;;;5031364;28;20060;-86
2021/04/25 08:29:20;;;;;;;6.20;4.25;;;;;;;;;;5017748;28;20058;-86
2021/04/25 08:31:46;;;;;;;5.90;4.55;;;;;;;;;;5022949;28;20033;-86
2021/04/25 08:34:12;;;;;;;5.32;4.22;;;;;;;;;;5035506;28;20041;-86
2021/04/25 08:36:38;;;;;;;6.97;4.53;;;;;;;;;;5026205;28;20386;-86
2021/04/25 08:39:05;;;;;;;5.88;4.80;;;;;;;;;;5033647;28;20025;-85
2021/04/25 08:41:31;;;;;;;6.63;4.35;;;;;;;;;;5042288;28;20032;-85
2021/04/25 08:43:57;;;;;;;7.18;4.50;;;;;;;;;;5026002;28;20026;-85
2021/04/25 08:46:26;;;;;;;7.40;4.60;;;;;;;;;;5020573;28;20096;-86
2021/04/25 08:48:52;;;;;;;6.65;4.55;;;;;;;;;;5018530;28;20026;-85
2021/04/25 08:51:19;;;;;;;7.22;4.72;;;;;;;;;;5019006;28;20470;-86
2021/04/25 08:53:45;;;;;;;6.70;4.60;;;;;;;;;;5020029;28;20046;-85
2021/04/25 08:56:12;;;;;;;8.15;4.88;;;;;;;;;;5020947;28;20500;-85
2021/04/25 08:58:38;;;;;;;5.93;4.78;;;;;;;;;;5023573;28;20429;-86
2021/04/25 09:01:05;;;;;;;5.18;4.15;;;;;;;;;;5043228;28;20030;-86
2021/04/25 09:03:31;;;;;;;7.13;4.45;;;;;;;;;;5032968;28;20029;-85
2021/04/25 09:06:00;;;;;;;5.28;4.65;;;;;;;;;;5019825;28;20178;-86
2021/04/25 09:08:42;;;;;;;6.43;4.28;;;;;;;;;;5027957;28;20076;-86
2021/04/25 09:11:08;;;;;;;7.68;5.20;;;;;;;;;;5020963;28;20026;-85
2021/04/25 09:13:34;;;;;;;8.32;4.60;;;;;;;;;;5038565;28;20029;-86
2021/04/25 09:16:09;;;;;;;9.43;5.15;;;;;;;;;;5051686;28;20021;-85
2021/04/25 09:18:35;;;;;;;9.88;5.60;;;;;;;;;;5051447;28;20049;-86
2021/04/25 09:21:05;;;;;;;7.80;5.50;;;;;;;;;;5047186;28;20018;-86
2021/04/25 09:23:31;;;;;;;7.72;5.93;;;;;;;;;;5026855;28;20037;-86
2021/04/25 09:26:00;;;;;;;10.05;6.18;;;;;;;;;;5020288;28;20080;-85
2021/04/25 09:28:26;;;;;;;7.95;5.32;;;;;;;;;;5018121;28;20048;-87
2021/04/25 09:30:56;;;;;;;8.27;6.07;;;;;;;;;;5018193;28;20034;-87
2021/04/25 09:33:24;;;;;;;9.05;6.43;;;;;;;;;;5017002;28;20030;-86
2021/04/25 09:35:51;;;;;;;8.88;6.18;;;;;;;;;;5020061;28;20069;-86
2021/04/25 09:38:17;;;;;;;10.13;6.43;;;;;;;;;;5026660;28;20471;-86
2021/04/25 09:40:52;;;;;;;9.52;6.75;;;;;;;;;;5022181;28;20028;-86
2021/04/25 09:43:19;;;;;;;8.13;6.13;;;;;;;;;;5029995;28;20108;-86
2021/04/25 09:45:48;;;;;;;9.05;6.00;;;;;;;;;;5017141;28;20021;-86
2021/04/25 09:48:29;;;;;;;9.00;5.45;;;;;;;;;;5030897;28;20025;-86
2021/04/25 09:51:11;;;;;;;7.65;5.70;;;;;;;;;;5017836;28;20033;-86
2021/04/25 09:53:38;;;;;;;7.65;5.40;;;;;;;;;;5019217;28;20037;-86
2021/04/25 09:56:05;;;;;;;7.03;5.18;;;;;;;;;;5019955;28;20037;-86
2021/04/25 09:58:31;;;;;;;7.63;5.40;;;;;;;;;;5020214;28;20110;-86
2021/04/25 10:00:57;;;;;;;6.85;4.50;;;;;;;;;;5041931;28;20057;-87
2021/04/25 10:03:23;;;;;;;6.82;5.28;;;;;;;;;;5029756;28;20470;-86
2021/04/25 10:05:59;;;;;;;8.40;4.50;;;;;;;;;;5030215;28;20429;-86
2021/04/25 10:08:29;;;;;;;7.45;4.53;;;;;;;;;;5020104;28;20092;-86
2021/04/25 10:10:55;;;;;;;7.60;4.80;;;;;;;;;;5019978;28;20098;-86
2021/04/25 10:13:21;;;;;;;6.47;4.95;;;;;;;;;;5017449;28;20030;-86
2021/04/25 10:15:47;;;;;;;7.97;5.50;;;;;;;;;;5031104;28;20022;-86
2021/04/25 10:18:13;;;;;;;8.30;5.43;;;;;;;;;;5017423;28;20025;-86
2021/04/25 10:20:39;;;;;;;8.30;6.00;;;;;;;;;;5019325;28;20148;-85
2021/04/25 10:23:07;;;;;;;9.75;5.30;;;;;;;;;;5019782;28;20101;-86
2021/04/25 10:25:38;;;;;;;8.20;6.05;;;;;;;;;;5019278;28;20056;-86
2021/04/25 10:28:09;;;;;;;8.27;5.57;;;;;;;;;;5030899;28;20053;-85
2021/04/25 10:30:37;;;;;;;9.23;5.93;;;;;;;;;;5015047;28;20083;-86
2021/04/25 10:33:03;;;;;;;10.10;6.03;;;;;;;;;;5029950;28;20041;-85
2021/04/25 10:35:33;;;;;;;9.48;4.85;;;;;;;;;;5019341;28;20049;-85
2021/04/25 10:37:59;;;;;;;8.15;5.32;;;;;;;;;;5018781;28;20026;-85
2021/04/25 10:40:30;;;;;;;7.72;5.47;;;;;;;;;;5018758;28;20021;-84
2021/04/25 10:43:06;;;;;;;9.77;5.75;;;;;;;;;;5023917;28;20482;-84
2021/04/25 10:45:35;;;;;;;9.05;5.38;;;;;;;;;;5039164;28;20030;-84
2021/04/25 10:48:21;;;;;;;10.52;5.88;;;;;;;;;;5037521;28;20356;-85
2021/04/25 10:50:48;;;;;;;6.55;4.28;;;;;;;;;;5026102;28;20026;-85
2021/04/25 10:53:25;;;;;;;7.72;4.97;;;;;;;;;;5021033;28;20034;-85
2021/04/25 10:56:11;;;;;;;7.22;4.93;;;;;;;;;;5031646;28;20268;-86
2021/04/25 10:58:37;;;;;;;7.05;4.95;;;;;;;;;;5044735;28;20028;-85
2021/04/25 11:01:03;;;;;;;6.03;4.65;;;;;;;;;;5050777;28;20080;-85
2021/04/25 11:03:32;;;;;;;7.93;5.32;;;;;;;;;;5030738;28;20026;-86
2021/04/25 11:05:58;;;;;;;8.18;5.70;;;;;;;;;;5018516;28;20034;-85
2021/04/25 11:08:30;;;;;;;7.35;5.25;;;;;;;;;;5019559;28;20485;-85
2021/04/25 11:11:07;;;;;;;9.85;5.65;;;;;;;;;;5021571;28;20033;-86
2021/04/25 11:13:51;;;;;;;8.52;5.70;;;;;;;;;;5026944;28;20026;-85
2021/04/25 11:16:17;;;;;;;8.60;5.30;;;;;;;;;;5016496;28;20022;-85
2021/04/25 11:18:52;;;;;;;8.35;4.95;;;;;;;;;;5030686;28;20074;-86
2021/04/25 11:21:31;;;;;;;7.13;4.93;;;;;;;;;;5029764;28;20037;-86
2021/04/25 11:24:06;;;;;;;10.70;5.13;;;;;;;;;;5017928;28;20374;-86
2021/04/25 11:29:23;;;;;;;10.38;5.25;;;;;;;;;;5022393;28;20129;-86
2021/04/25 11:31:54;;;;;;;6.80;4.85;;;;;;;;;;5017939;28;20091;-85
2021/04/25 11:34:26;;;;;;;7.63;5.07;;;;;;;;;;5015422;28;20034;-85
2021/04/25 11:36:56;;;;;;;7.53;4.65;;;;;;;;;;5035411;28;20018;-85
2021/04/25 11:39:27;;;;;;;9.43;5.68;;;;;;;;;;5022150;28;20030;-85
2021/04/25 11:41:53;;;;;;;8.30;5.20;;;;;;;;;;5016363;28;20435;-85
2021/04/25 11:44:26;;;;;;;12.80;5.43;;;;;;;;;;5018778;28;20055;-85
2021/04/25 11:46:53;;;;;;;9.88;5.50;;;;;;;;;;5025012;28;20018;-85
2021/04/25 11:49:28;;;;;;;7.20;4.50;;;;;;;;;;5021503;28;20080;-85
2021/04/25 11:52:14;;;;;;;9.70;5.38;;;;;;;;;;5023475;28;20026;-85
2021/04/25 11:54:40;;;;;;;8.27;5.00;;;;;;;;;;5022805;28;20036;-85
2021/04/25 11:57:10;;;;;;;9.07;5.85;;;;;;;;;;5037135;28;20025;-85
2021/04/25 11:59:37;;;;;;;8.93;5.53;;;;;;;;;;5046067;28;20033;-85
2021/04/25 12:02:10;;;;;;;6.97;5.22;;;;;;;;;;5034039;28;20368;-83
2021/04/25 12:04:46;;;;;;;9.18;5.30;;;;;;;;;;5025471;28;20074;-85
2021/04/25 12:07:12;;;;;;;7.95;4.63;;;;;;;;;;5026079;28;20520;-86
2021/04/25 12:09:40;;;;;;;6.80;4.25;;;;;;;;;;5036450;28;20100;-84
2021/04/25 12:12:07;;;;;;;6.70;4.75;;;;;;;;;;5041033;28;20021;-86
2021/04/25 12:14:33;;;;;;;6.70;4.43;;;;;;;;;;5025127;28;20029;-85
2021/04/25 12:17:09;;;;;;;7.95;4.25;;;;;;;;;;5029626;28;20022;-85
2021/04/25 12:19:36;;;;;;;7.30;4.55;;;;;;;;;;5025882;28;20092;-85
2021/04/25 12:22:02;;;;;;;7.00;4.60;;;;;;;;;;5035922;28;20494;-86
2021/04/25 12:24:28;;;;;;;7.80;4.45;;;;;;;;;;5020284;28;20034;-86
2021/04/25 12:26:54;;;;;;;6.63;4.30;;;;;;;;;;5037774;28;20022;-86
2021/04/25 12:29:33;;;;;;;7.65;4.53;;;;;;;;;;5026032;28;20034;-86
2021/04/25 12:31:59;;;;;;;7.38;4.03;;;;;;;;;;5029043;28;20029;-85
2021/04/25 12:34:28;;;;;;;9.02;4.13;;;;;;;;;;5034769;28;20041;-85
2021/04/25 12:36:54;;;;;;;6.22;4.10;;;;;;;;;;5022309;28;20048;-85
2021/04/25 12:39:20;;;;;;;7.00;3.60;;;;;;;;;;5030629;28;20022;-85
2021/04/25 12:41:48;;;;;;;6.22;4.10;;;;;;;;;;5021593;28;20022;-85
2021/04/25 12:44:16;;;;;;;5.82;4.20;;;;;;;;;;5028128;28;20056;-84
2021/04/25 12:46:55;;;;;;;5.63;4.07;;;;;;;;;;5034592;28;20022;-86
2021/04/25 12:49:21;;;;;;;5.82;4.13;;;;;;;;;;5025740;28;20029;-85
2021/04/25 12:51:48;;;;;;;5.55;3.60;;;;;;;;;;5024852;28;20021;-85
2021/04/25 12:54:15;;;;;;;7.75;4.20;;;;;;;;;;5023311;28;20034;-85
2021/04/25 12:56:44;;;;;;;11.73;3.85;;;;;;;;;;5022545;28;20482;-85
2021/04/25 12:59:14;;;;;;;4.90;3.53;;;;;;;;;;5036063;28;20037;-86
2021/04/25 13:01:40;;;;;;;5.47;3.70;;;;;;;;;;5039563;28;20044;-87
2021/04/25 13:04:23;;;;;;;9.23;3.45;;;;;;;;;;5035433;28;20029;-85
2021/04/25 13:06:49;;;;;;;8.10;3.90;;;;;;;;;;5022998;28;20042;-85
2021/04/25 13:09:16;;;;;;;4.90;3.75;;;;;;;;;;5022457;28;20022;-86
2021/04/25 13:11:43;;;;;;;5.28;3.50;;;;;;;;;;5035730;28;20025;-86
2021/04/25 13:14:10;;;;;;;8.48;3.65;;;;;;;;;;5031832;28;20041;-85
2021/04/25 13:16:36;;;;;;;4.38;3.25;;;;;;;;;;5031038;28;20026;-85
2021/04/25 13:19:03;;;;;;;5.45;3.20;;;;;;;;;;5019953;28;20524;-85
2021/04/25 13:21:40;;;;;;;6.20;3.72;;;;;;;;;;5039466;28;20044;-85
2021/04/25 13:24:10;;;;;;;5.97;4.22;;;;;;;;;;5039702;28;20548;-85
2021/04/25 13:26:36;;;;;;;5.10;3.63;;;;;;;;;;5038689;28;20048;-85
2021/04/25 13:29:02;;;;;;;6.10;3.97;;;;;;;;;;5035603;28;20032;-85
2021/04/25 13:31:28;;;;;;;6.32;3.63;;;;;;;;;;5036168;28;20044;-84
2021/04/25 13:33:54;;;;;;;4.95;3.25;;;;;;;;;;5026266;28;20037;-85
2021/04/25 13:36:21;;;;;;;5.82;3.40;;;;;;;;;;5025266;28;20026;-85
2021/04/25 13:38:47;;;;;;;5.77;3.53;;;;;;;;;;5033126;28;20389;-85
2021/04/25 13:41:13;;;;;;;4.57;3.63;;;;;;;;;;5031803;28;20266;-85
2021/04/25 13:43:39;;;;;;;7.85;3.88;;;;;;;;;;5034759;28;20032;-85
2021/04/25 13:46:05;;;;;;;5.57;3.85;;;;;;;;;;5037514;28;20018;-85
2021/04/25 13:48:31;;;;;;;5.50;3.72;;;;;;;;;;5039002;28;20034;-85
2021/04/25 13:50:57;;;;;;;7.10;3.88;;;;;;;;;;5037234;28;20073;-86
2021/04/25 13:53:23;;;;;;;5.50;4.00;;;;;;;;;;5034580;28;20457;-86
2021/04/25 13:55:49;;;;;;;5.47;3.70;;;;;;;;;;5035031;28;20044;-86
2021/04/25 13:58:15;;;;;;;4.95;3.40;;;;;;;;;;5037451;28;20112;-86
2021/04/25 14:00:41;;;;;;;5.55;3.75;;;;;;;;;;5050398;28;20478;-85
2021/04/25 14:03:08;;;;;;;8.73;4.10;;;;;;;;;;5033674;28;20028;-86
2021/04/25 14:05:34;;;;;;;6.82;3.70;;;;;;;;;;5029003;28;20072;-86
2021/04/25 14:08:00;;;;;;;5.72;3.70;;;;;;;;;;5024058;28;20066;-86
2021/04/25 14:10:27;;;;;;;6.55;3.83;;;;;;;;;;5026534;28;20072;-86
2021/04/25 14:12:54;;;;;;;6.90;3.67;;;;;;;;;;5030176;28;20033;-86
2021/04/25 14:15:22;;;;;;;5.37;3.53;;;;;;;;;;5024630;28;20037;-86
2021/04/25 14:17:48;;;;;;;9.18;3.70;;;;;;;;;;5026780;28;20037;-85
2021/04/25 14:20:15;;;;;;;7.30;3.72;;;;;;;;;;5026222;28;20399;-85
2021/04/25 14:22:41;;;;;;;7.20;3.90;;;;;;;;;;5031481;28;20033;-86
2021/04/25 14:25:07;;;;;;;5.55;3.75;;;;;;;;;;5036764;28;20381;-86
2021/04/25 14:27:33;;;;;;;6.05;3.88;;;;;;;;;;5014826;28;20048;-86
2021/04/25 14:29:59;;;;;;;6.78;3.67;;;;;;;;;;5018673;28;20022;-86
2021/04/25 14:32:25;;;;;;;5.80;3.65;;;;;;;;;;5025548;28;20040;-85
2021/04/25 14:34:51;;;;;;;6.43;3.50;;;;;;;;;;5027724;28;20049;-86
2021/04/25 14:37:17;;;;;;;8.77;4.00;;;;;;;;;;5028956;28;20026;-85
2021/04/25 14:39:43;;;;;;;7.43;3.65;;;;;;;;;;5038853;28;20048;-86
2021/04/25 14:42:10;;;;;;;6.38;3.55;;;;;;;;;;5038271;28;20421;-86
2021/04/25 14:44:36;;;;;;;9.30;3.90;;;;;;;;;;5025604;28;20028;-86